PWSweather.com
Personal Weather Stations
Station Observations
RAINMAN1
Jacksonville, FL 32224

Jacksonville, FL 32224

Lat: 30.28041649, Lon: -81.46911621

Elevation: 26

Station Type: Tycon TP1080WC

Latest ConditionsUpdated 11:10:01 PM EDT Thursday, Apr 24, 2014
Currently Today's Max Today's Min Today's Average
Temperature 71.8°F22.1°C 86.7°F30.4°C 61.7°F16.5°C 73.6°F23.1°C
Dew Point 66.0°F18.9°C 68.6°F20.3°C 60.2°F15.7°C 65.3°F18.5°C
Winds 4.8 mph S7.7 kmh S 12.7 mph S20.4 kmh S - 4.4 mph 7.1 kmh
Wind Gusts 7.6 mph12.2 kmh 18.3 mph29.5 kmh - -
Humidity 82% 96% 54% 77%
Pressure 29.63 in1003.4 mb 29.70 in1005.8 mb 29.59 in1002.0 mb -
Hour Temp Dew Point Humidity Winds Wind Gusts Pressure Precip Precip Rate Daily Precip Total
11:10 PM 71.8°F22.1°C 66.0°F18.9°C 82% 4.8 mph S7.7 kmh S 7.6 mph12.2 kmh 29.63 in1003.4 mb 0.00 in0.0 mm 0.00 in/hr0.0 mm/hr 0.00 in0.0 mm
11:05 PM 72.0°F22.2°C 66.2°F19.0°C 82% 5.3 mph S8.5 kmh S 6.9 mph11.1 kmh 29.63 in1003.4 mb 0.00 in0.0 mm 0.00 in/hr0.0 mm/hr 0.00 in0.0 mm
11:00 PM 72.0°F22.2°C 66.2°F19.0°C 82% 7.2 mph S11.6 kmh S 9.8 mph15.8 kmh 29.63 in1003.4 mb 0.00 in0.0 mm 0.00 in/hr0.0 mm/hr 0.00 in0.0 mm
10:55 PM 71.8°F22.1°C 66.0°F18.9°C 82% 7.1 mph SSE11.4 kmh SSE 9.8 mph15.8 kmh 29.63 in1003.4 mb 0.00 in0.0 mm 0.00 in/hr0.0 mm/hr 0.00 in0.0 mm
10:50 PM 71.8°F22.1°C 66.4°F19.1°C 83% 5.5 mph SSE8.9 kmh SSE 9.2 mph14.8 kmh 29.64 in1003.7 mb 0.00 in0.0 mm 0.00 in/hr0.0 mm/hr 0.00 in0.0 mm
10:45 PM 71.8°F22.1°C 66.0°F18.9°C 82% 5.5 mph SSE8.9 kmh SSE 9.2 mph14.8 kmh 29.64 in1003.7 mb 0.00 in0.0 mm 0.00 in/hr0.0 mm/hr 0.00 in0.0 mm
10:40 PM 72.0°F22.2°C 66.2°F19.0°C 82% 5.9 mph SSE9.5 kmh SSE 9.2 mph14.8 kmh 29.64 in1003.7 mb 0.00 in0.0 mm 0.00 in/hr0.0 mm/hr 0.00 in0.0 mm
10:35 PM 72.0°F22.2°C 66.2°F19.0°C 82% 5.9 mph SSE9.5 kmh SSE 9.8 mph15.8 kmh 29.64 in1003.7 mb 0.00 in0.0 mm 0.00 in/hr0.0 mm/hr 0.00 in0.0 mm
10:30 PM 72.0°F22.2°C 66.6°F19.2°C 83% 6.0 mph SE9.7 kmh SE 9.8 mph15.8 kmh 29.63 in1003.4 mb 0.00 in0.0 mm 0.00 in/hr0.0 mm/hr 0.00 in0.0 mm
10:25 PM 72.0°F22.2°C 66.2°F19.0°C 82% 6.8 mph SE10.9 kmh SE 10.7 mph17.2 kmh 29.64 in1003.7 mb 0.00 in0.0 mm 0.00 in/hr0.0 mm/hr 0.00 in0.0 mm
10:20 PM 72.1°F22.3°C 66.4°F19.1°C 82% 6.9 mph SSE11.1 kmh SSE 10.7 mph17.2 kmh 29.63 in1003.4 mb 0.00 in0.0 mm 0.00 in/hr0.0 mm/hr 0.00 in0.0 mm
10:15 PM 72.1°F22.3°C 66.4°F19.1°C 82% 5.3 mph SSE8.5 kmh SSE 9.8 mph15.8 kmh 29.63 in1003.4 mb 0.00 in0.0 mm 0.00 in/hr0.0 mm/hr 0.00 in0.0 mm
10:10 PM 72.1°F22.3°C 66.4°F19.1°C 82% 4.4 mph S7.1 kmh S 4.5 mph7.2 kmh 29.64 in1003.7 mb 0.00 in0.0 mm 0.00 in/hr0.0 mm/hr 0.00 in0.0 mm
10:05 PM 72.3°F22.4°C 66.6°F19.2°C 82% 5.5 mph S8.9 kmh S 9.2 mph14.8 kmh 29.64 in1003.7 mb 0.00 in0.0 mm 0.00 in/hr0.0 mm/hr 0.00 in0.0 mm
10:00 PM 72.3°F22.4°C 66.6°F19.2°C 82% 6.3 mph S10.1 kmh S 9.2 mph14.8 kmh 29.64 in1003.7 mb 0.00 in0.0 mm 0.00 in/hr0.0 mm/hr 0.00 in0.0 mm
09:55 PM 72.1°F22.3°C 66.4°F19.1°C 82% 5.7 mph S9.2 kmh S 7.6 mph12.2 kmh 29.63 in1003.4 mb 0.00 in0.0 mm 0.00 in/hr0.0 mm/hr 0.00 in0.0 mm
09:50 PM 72.3°F22.4°C 66.6°F19.2°C 82% 5.1 mph S8.2 kmh S 6.9 mph11.1 kmh 29.63 in1003.4 mb 0.00 in0.0 mm 0.00 in/hr0.0 mm/hr 0.00 in0.0 mm
09:45 PM 72.5°F22.5°C 66.7°F19.3°C 82% 4.7 mph SSE7.6 kmh SSE 6.9 mph11.1 kmh 29.63 in1003.4 mb 0.00 in0.0 mm 0.00 in/hr0.0 mm/hr 0.00 in0.0 mm
09:40 PM 72.5°F22.5°C 66.7°F19.3°C 82% 5.6 mph SSE9.0 kmh SSE 9.8 mph15.8 kmh 29.63 in1003.4 mb 0.00 in0.0 mm 0.00 in/hr0.0 mm/hr 0.00 in0.0 mm
09:35 PM 72.5°F22.5°C 66.7°F19.3°C 82% 7.3 mph SSE11.7 kmh SSE 9.8 mph15.8 kmh 29.63 in1003.4 mb 0.00 in0.0 mm 0.00 in/hr0.0 mm/hr 0.00 in0.0 mm
09:30 PM 72.5°F22.5°C 66.7°F19.3°C 82% 7.5 mph SSE12.1 kmh SSE 9.8 mph15.8 kmh 29.64 in1003.7 mb 0.00 in0.0 mm 0.00 in/hr0.0 mm/hr 0.00 in0.0 mm
09:25 PM 72.3°F22.4°C 66.9°F19.4°C 83% 5.7 mph S9.2 kmh S 9.2 mph14.8 kmh 29.63 in1003.4 mb 0.00 in0.0 mm 0.00 in/hr0.0 mm/hr 0.00 in0.0 mm
09:20 PM 72.1°F22.3°C 67.1°F19.5°C 84% 4.8 mph SSE7.7 kmh SSE 6.9 mph11.1 kmh 29.63 in1003.4 mb 0.00 in0.0 mm 0.00 in/hr0.0 mm/hr 0.00 in0.0 mm
09:15 PM 72.3°F22.4°C 67.3°F19.6°C 84% 4.9 mph SE7.9 kmh SE 6.9 mph11.1 kmh 29.63 in1003.4 mb 0.00 in0.0 mm 0.00 in/hr0.0 mm/hr 0.00 in0.0 mm
09:10 PM 72.1°F22.3°C 67.1°F19.5°C 84% 4.5 mph SE7.2 kmh SE 4.5 mph7.2 kmh 29.63 in1003.4 mb 0.00 in0.0 mm 0.00 in/hr0.0 mm/hr 0.00 in0.0 mm
09:05 PM 72.5°F22.5°C 67.4°F19.7°C 84% 4.9 mph SE7.9 kmh SE 6.9 mph11.1 kmh 29.63 in1003.4 mb 0.00 in0.0 mm 0.00 in/hr0.0 mm/hr 0.00 in0.0 mm
09:00 PM 72.5°F22.5°C 67.4°F19.7°C 84% 5.2 mph SE8.4 kmh SE 6.9 mph11.1 kmh 29.63 in1003.4 mb 0.00 in0.0 mm 0.00 in/hr0.0 mm/hr 0.00 in0.0 mm
08:55 PM 72.5°F22.5°C 67.4°F19.7°C 84% 5.4 mph S8.7 kmh S 8.3 mph13.4 kmh 29.63 in1003.4 mb 0.00 in0.0 mm 0.00 in/hr0.0 mm/hr 0.00 in0.0 mm
08:50 PM 72.5°F22.5°C 67.4°F19.7°C 84% 5.3 mph S8.5 kmh S 8.3 mph13.4 kmh 29.63 in1003.4 mb 0.00 in0.0 mm 0.00 in/hr0.0 mm/hr 0.00 in0.0 mm
08:45 PM 72.5°F22.5°C 67.4°F19.7°C 84% 4.7 mph SSE7.6 kmh SSE 6.0 mph9.7 kmh 29.63 in1003.4 mb 0.00 in0.0 mm 0.00 in/hr0.0 mm/hr 0.00 in0.0 mm
08:40 PM 72.7°F22.6°C 67.3°F19.6°C 83% 4.1 mph SE6.6 kmh SE 6.0 mph9.7 kmh 29.63 in1003.4 mb 0.00 in0.0 mm 0.00 in/hr0.0 mm/hr 0.00 in0.0 mm
08:35 PM 73.0°F22.8°C 67.6°F19.8°C 83% 4.8 mph SE7.7 kmh SE 8.3 mph13.4 kmh 29.63 in1003.4 mb 0.00 in0.0 mm 0.00 in/hr0.0 mm/hr 0.00 in0.0 mm
08:30 PM 73.0°F22.8°C 67.3°F19.6°C 82% 6.2 mph SE10.0 kmh SE 8.3 mph13.4 kmh 29.63 in1003.4 mb 0.00 in0.0 mm 0.00 in/hr0.0 mm/hr 0.00 in0.0 mm
08:25 PM 73.2°F22.9°C 67.8°F19.9°C 83% 6.1 mph SSE9.8 kmh SSE 9.2 mph14.8 kmh 29.63 in1003.4 mb 0.00 in0.0 mm 0.00 in/hr0.0 mm/hr 0.00 in0.0 mm
08:20 PM 73.0°F22.8°C 67.3°F19.6°C 82% 5.2 mph SE8.4 kmh SE 9.2 mph14.8 kmh 29.62 in1003.0 mb 0.00 in0.0 mm 0.00 in/hr0.0 mm/hr 0.00 in0.0 mm
08:15 PM 73.4°F23.0°C 67.6°F19.8°C 82% 5.9 mph SE9.5 kmh SE 8.3 mph13.4 kmh 29.62 in1003.0 mb 0.00 in0.0 mm 0.00 in/hr0.0 mm/hr 0.00 in0.0 mm
08:10 PM 73.6°F23.1°C 67.4°F19.7°C 81% 6.1 mph SE9.8 kmh SE 8.3 mph13.4 kmh 29.62 in1003.0 mb 0.00 in0.0 mm 0.00 in/hr0.0 mm/hr 0.00 in0.0 mm
08:05 PM 73.8°F23.2°C 67.6°F19.8°C 81% 5.7 mph ESE9.2 kmh ESE 8.3 mph13.4 kmh 29.62 in1003.0 mb 0.00 in0.0 mm 0.00 in/hr0.0 mm/hr 0.00 in0.0 mm
08:00 PM 73.9°F23.3°C 67.4°F19.7°C 80% 6.3 mph SE10.1 kmh SE 9.8 mph15.8 kmh 29.62 in1003.0 mb 0.00 in0.0 mm 0.00 in/hr0.0 mm/hr 0.00 in0.0 mm
07:55 PM 74.1°F23.4°C 67.6°F19.8°C 80% 6.5 mph SE10.5 kmh SE 9.8 mph15.8 kmh 29.62 in1003.0 mb 0.00 in0.0 mm 0.00 in/hr0.0 mm/hr 0.00 in0.0 mm
07:50 PM 74.7°F23.7°C 67.8°F19.9°C 79% 6.7 mph ESE10.8 kmh ESE 9.8 mph15.8 kmh 29.62 in1003.0 mb 0.00 in0.0 mm 0.00 in/hr0.0 mm/hr 0.00 in0.0 mm
07:45 PM 74.8°F23.8°C 67.2°F19.6°C 77% 7.6 mph SE12.2 kmh SE 10.7 mph17.2 kmh 29.62 in1003.0 mb 0.00 in0.0 mm 0.00 in/hr0.0 mm/hr 0.00 in0.0 mm
07:40 PM 75.0°F23.9°C 67.4°F19.7°C 77% 8.0 mph SE12.9 kmh SE 10.7 mph17.2 kmh 29.62 in1003.0 mb 0.00 in0.0 mm 0.00 in/hr0.0 mm/hr 0.00 in0.0 mm
07:35 PM 75.6°F24.2°C 67.1°F19.5°C 75% 7.2 mph SE11.6 kmh SE 10.7 mph17.2 kmh 29.62 in1003.0 mb 0.00 in0.0 mm 0.00 in/hr0.0 mm/hr 0.00 in0.0 mm
07:30 PM 76.5°F24.7°C 67.2°F19.6°C 73% 7.4 mph SE11.9 kmh SE 14.5 mph23.3 kmh 29.62 in1003.0 mb 0.00 in0.0 mm 0.00 in/hr0.0 mm/hr 0.00 in0.0 mm
07:25 PM 77.4°F25.2°C 67.7°F19.8°C 72% 7.5 mph SE12.1 kmh SE 14.5 mph23.3 kmh 29.62 in1003.0 mb 0.00 in0.0 mm 0.00 in/hr0.0 mm/hr 0.00 in0.0 mm
07:20 PM 77.9°F25.5°C 67.4°F19.7°C 70% 7.5 mph SE12.1 kmh SE 11.4 mph18.3 kmh 29.62 in1003.0 mb 0.00 in0.0 mm 0.00 in/hr0.0 mm/hr 0.00 in0.0 mm
07:15 PM 78.1°F25.6°C 67.1°F19.5°C 69% 7.6 mph SE12.2 kmh SE 11.4 mph18.3 kmh 29.62 in1003.0 mb 0.00 in0.0 mm 0.00 in/hr0.0 mm/hr 0.00 in0.0 mm
07:10 PM 78.8°F26.0°C 66.5°F19.2°C 66% 6.5 mph ESE10.5 kmh ESE 10.7 mph17.2 kmh 29.62 in1003.0 mb 0.00 in0.0 mm 0.00 in/hr0.0 mm/hr 0.00 in0.0 mm
07:05 PM 79.2°F26.2°C 66.9°F19.4°C 66% 6.8 mph SE10.9 kmh SE 9.8 mph15.8 kmh 29.62 in1003.0 mb 0.00 in0.0 mm 0.00 in/hr0.0 mm/hr 0.00 in0.0 mm
07:00 PM 79.0°F26.1°C 66.7°F19.3°C 66% 9.3 mph S15.0 kmh S 18.3 mph29.5 kmh 29.62 in1003.0 mb 0.00 in0.0 mm 0.00 in/hr0.0 mm/hr 0.00 in0.0 mm
06:55 PM 79.0°F26.1°C 66.3°F19.1°C 65% 12.2 mph S19.6 kmh S 18.3 mph29.5 kmh 29.62 in1003.0 mb 0.00 in0.0 mm 0.00 in/hr0.0 mm/hr 0.00 in0.0 mm
06:50 PM 79.3°F26.3°C 66.1°F18.9°C 64% 12.7 mph S20.4 kmh S 17.4 mph28.0 kmh 29.61 in1002.7 mb 0.00 in0.0 mm 0.00 in/hr0.0 mm/hr 0.00 in0.0 mm
06:45 PM 79.7°F26.5°C 66.0°F18.9°C 63% 11.9 mph SSE19.2 kmh SSE 16.8 mph27.0 kmh 29.61 in1002.7 mb 0.00 in0.0 mm 0.00 in/hr0.0 mm/hr 0.00 in0.0 mm
06:40 PM 80.1°F26.7°C 65.9°F18.8°C 62% 10.9 mph SE17.5 kmh SE 16.8 mph27.0 kmh 29.61 in1002.7 mb 0.00 in0.0 mm 0.00 in/hr0.0 mm/hr 0.00 in0.0 mm
06:35 PM 80.4°F26.9°C 66.3°F19.1°C 62% 11.2 mph S18.0 kmh S 16.8 mph27.0 kmh 29.61 in1002.7 mb 0.00 in0.0 mm 0.00 in/hr0.0 mm/hr 0.00 in0.0 mm
06:30 PM 80.1°F26.7°C 65.9°F18.8°C 62% 11.1 mph S17.9 kmh S 16.8 mph27.0 kmh 29.60 in1002.4 mb 0.00 in0.0 mm 0.00 in/hr0.0 mm/hr 0.00 in0.0 mm
06:25 PM 80.2°F26.8°C 66.1°F18.9°C 62% 11.1 mph SE17.9 kmh SE 16.8 mph27.0 kmh 29.60 in1002.4 mb 0.00 in0.0 mm 0.00 in/hr0.0 mm/hr 0.00 in0.0 mm
06:20 PM 79.7°F26.5°C 65.6°F18.7°C 62% 9.9 mph SE15.9 kmh SE 16.8 mph27.0 kmh 29.61 in1002.7 mb 0.00 in0.0 mm 0.00 in/hr0.0 mm/hr 0.00 in0.0 mm
06:15 PM 79.9°F26.6°C 66.7°F19.3°C 64% 9.0 mph SE14.5 kmh SE 14.5 mph23.3 kmh 29.61 in1002.7 mb 0.00 in0.0 mm 0.00 in/hr0.0 mm/hr 0.00 in0.0 mm
06:10 PM 79.5°F26.4°C 66.8°F19.3°C 65% 10.7 mph S17.2 kmh S 14.5 mph23.3 kmh 29.61 in1002.7 mb 0.00 in0.0 mm 0.00 in/hr0.0 mm/hr 0.00 in0.0 mm
06:05 PM 79.3°F26.3°C 66.1°F18.9°C 64% 10.6 mph SSE17.1 kmh SSE 13.0 mph20.9 kmh 29.61 in1002.7 mb 0.00 in0.0 mm 0.00 in/hr0.0 mm/hr 0.00 in0.0 mm
06:00 PM 79.3°F26.3°C 66.1°F18.9°C 64% 12.4 mph SE20.0 kmh SE 16.8 mph27.0 kmh 29.61 in1002.7 mb 0.00 in0.0 mm 0.00 in/hr0.0 mm/hr 0.00 in0.0 mm
05:55 PM 80.2°F26.8°C 66.5°F19.2°C 63% 12.0 mph SE19.3 kmh SE 16.8 mph27.0 kmh 29.61 in1002.7 mb 0.00 in0.0 mm 0.00 in/hr0.0 mm/hr 0.00 in0.0 mm
05:50 PM 81.0°F27.2°C 66.3°F19.1°C 61% 10.2 mph SE16.4 kmh SE 15.9 mph25.6 kmh 29.61 in1002.7 mb 0.00 in0.0 mm 0.00 in/hr0.0 mm/hr 0.00 in0.0 mm
05:45 PM 81.0°F27.2°C 66.3°F19.1°C 61% 11.8 mph SE19.0 kmh SE 15.9 mph25.6 kmh 29.61 in1002.7 mb 0.00 in0.0 mm 0.00 in/hr0.0 mm/hr 0.00 in0.0 mm
05:40 PM 80.8°F27.1°C 66.1°F18.9°C 61% 9.9 mph SE15.9 kmh SE 15.9 mph25.6 kmh 29.61 in1002.7 mb 0.00 in0.0 mm 0.00 in/hr0.0 mm/hr 0.00 in0.0 mm
05:35 PM 81.0°F27.2°C 66.8°F19.3°C 62% 7.8 mph SE12.6 kmh SE 12.1 mph19.5 kmh 29.61 in1002.7 mb 0.00 in0.0 mm 0.00 in/hr0.0 mm/hr 0.00 in0.0 mm
05:30 PM 81.0°F27.2°C 66.8°F19.3°C 62% 8.6 mph SSE13.8 kmh SSE 11.4 mph18.3 kmh 29.61 in1002.7 mb 0.00 in0.0 mm 0.00 in/hr0.0 mm/hr 0.00 in0.0 mm
05:25 PM 82.6°F28.1°C 67.3°F19.6°C 60% 9.3 mph SE15.0 kmh SE 15.2 mph24.5 kmh 29.60 in1002.4 mb 0.00 in0.0 mm 0.00 in/hr0.0 mm/hr 0.00 in0.0 mm
05:20 PM 83.1°F28.4°C 67.4°F19.7°C 59% 9.4 mph SE15.1 kmh SE 15.2 mph24.5 kmh 29.60 in1002.4 mb 0.00 in0.0 mm 0.00 in/hr0.0 mm/hr 0.00 in0.0 mm
05:15 PM 82.6°F28.1°C 66.9°F19.4°C 59% 8.2 mph SE13.2 kmh SE 14.5 mph23.3 kmh 29.61 in1002.7 mb 0.00 in0.0 mm 0.00 in/hr0.0 mm/hr 0.00 in0.0 mm
05:10 PM 82.4°F28.0°C 66.7°F19.3°C 59% 6.3 mph ESE10.1 kmh ESE 13.0 mph20.9 kmh 29.60 in1002.4 mb 0.00 in0.0 mm 0.00 in/hr0.0 mm/hr 0.00 in0.0 mm
05:05 PM 82.8°F28.2°C 67.5°F19.7°C 60% 6.8 mph E10.9 kmh E 10.7 mph17.2 kmh 29.60 in1002.4 mb 0.00 in0.0 mm 0.00 in/hr0.0 mm/hr 0.00 in0.0 mm
05:00 PM 82.8°F28.2°C 67.5°F19.7°C 60% 8.8 mph SE14.2 kmh SE 12.1 mph19.5 kmh 29.61 in1002.7 mb 0.00 in0.0 mm 0.00 in/hr0.0 mm/hr 0.00 in0.0 mm
04:55 PM 82.4°F28.0°C 67.7°F19.8°C 61% 8.3 mph SE13.4 kmh SE 12.1 mph19.5 kmh 29.61 in1002.7 mb 0.00 in0.0 mm 0.00 in/hr0.0 mm/hr 0.00 in0.0 mm
04:50 PM 82.4°F28.0°C 68.6°F20.3°C 63% 7.3 mph SE11.7 kmh SE 10.7 mph17.2 kmh 29.60 in1002.4 mb 0.00 in0.0 mm 0.00 in/hr0.0 mm/hr 0.00 in0.0 mm
04:45 PM 83.1°F28.4°C 67.8°F19.9°C 60% 7.9 mph ESE12.7 kmh ESE 10.7 mph17.2 kmh 29.61 in1002.7 mb 0.00 in0.0 mm 0.00 in/hr0.0 mm/hr 0.00 in0.0 mm
04:40 PM 82.0°F27.8°C 67.8°F19.9°C 62% 7.9 mph SE12.7 kmh SE 12.1 mph19.5 kmh 29.61 in1002.7 mb 0.00 in0.0 mm 0.00 in/hr0.0 mm/hr 0.00 in0.0 mm
04:35 PM 81.5°F27.5°C 67.7°F19.8°C 63% 8.4 mph SE13.5 kmh SE 12.1 mph19.5 kmh 29.61 in1002.7 mb 0.00 in0.0 mm 0.00 in/hr0.0 mm/hr 0.00 in0.0 mm
04:30 PM 81.1°F27.3°C 67.4°F19.7°C 63% 8.9 mph SE14.3 kmh SE 12.1 mph19.5 kmh 29.61 in1002.7 mb 0.00 in0.0 mm 0.00 in/hr0.0 mm/hr 0.00 in0.0 mm
04:25 PM 82.0°F27.8°C 67.3°F19.6°C 61% 9.4 mph SSE15.1 kmh SSE 14.5 mph23.3 kmh 29.61 in1002.7 mb 0.00 in0.0 mm 0.00 in/hr0.0 mm/hr 0.00 in0.0 mm
04:20 PM 81.9°F27.7°C 68.1°F20.1°C 63% 10.6 mph SSE17.1 kmh SSE 14.5 mph23.3 kmh 29.61 in1002.7 mb 0.00 in0.0 mm 0.00 in/hr0.0 mm/hr 0.00 in0.0 mm
04:15 PM 82.2°F27.9°C 67.5°F19.7°C 61% 9.6 mph SE15.4 kmh SE 13.6 mph21.9 kmh 29.62 in1003.0 mb 0.00 in0.0 mm 0.00 in/hr0.0 mm/hr 0.00 in0.0 mm
04:10 PM 83.7°F28.7°C 67.9°F19.9°C 59% 7.9 mph E12.7 kmh E 10.7 mph17.2 kmh 29.61 in1002.7 mb 0.00 in0.0 mm 0.00 in/hr0.0 mm/hr 0.00 in0.0 mm
04:05 PM 82.2°F27.9°C 68.0°F20.0°C 62% 8.1 mph SE13.0 kmh SE 12.1 mph19.5 kmh 29.62 in1003.0 mb 0.00 in0.0 mm 0.00 in/hr0.0 mm/hr 0.00 in0.0 mm
04:00 PM 82.2°F27.9°C 68.0°F20.0°C 62% 7.6 mph SSE12.2 kmh SSE 12.1 mph19.5 kmh 29.62 in1003.0 mb 0.00 in0.0 mm 0.00 in/hr0.0 mm/hr 0.00 in0.0 mm
03:55 PM 81.5°F27.5°C 67.7°F19.8°C 63% 6.9 mph ESE11.1 kmh ESE 9.8 mph15.8 kmh 29.62 in1003.0 mb 0.00 in0.0 mm 0.00 in/hr0.0 mm/hr 0.00 in0.0 mm
03:50 PM 79.9°F26.6°C 67.6°F19.8°C 66% 7.9 mph SE12.7 kmh SE 10.7 mph17.2 kmh 29.63 in1003.4 mb 0.00 in0.0 mm 0.00 in/hr0.0 mm/hr 0.00 in0.0 mm
03:45 PM 80.1°F26.7°C 67.7°F19.8°C 66% 9.5 mph SE15.3 kmh SE 13.6 mph21.9 kmh 29.63 in1003.4 mb 0.00 in0.0 mm 0.00 in/hr0.0 mm/hr 0.00 in0.0 mm
03:40 PM 80.2°F26.8°C 67.5°F19.7°C 65% 9.0 mph SE14.5 kmh SE 13.6 mph21.9 kmh 29.63 in1003.4 mb 0.00 in0.0 mm 0.00 in/hr0.0 mm/hr 0.00 in0.0 mm
03:35 PM 80.6°F27.0°C 67.3°F19.6°C 64% 6.7 mph E10.8 kmh E 10.7 mph17.2 kmh 29.64 in1003.7 mb 0.00 in0.0 mm 0.00 in/hr0.0 mm/hr 0.00 in0.0 mm
03:30 PM 80.8°F27.1°C 67.1°F19.5°C 63% 5.7 mph ESE9.2 kmh ESE 8.3 mph13.4 kmh 29.63 in1003.4 mb 0.00 in0.0 mm 0.00 in/hr0.0 mm/hr 0.00 in0.0 mm
03:25 PM 79.7°F26.5°C 66.9°F19.4°C 65% 7.6 mph E12.2 kmh E 12.1 mph19.5 kmh 29.64 in1003.7 mb 0.00 in0.0 mm 0.00 in/hr0.0 mm/hr 0.00 in0.0 mm
03:20 PM 79.5°F26.4°C 66.3°F19.1°C 64% 8.9 mph ESE14.3 kmh ESE 12.1 mph19.5 kmh 29.64 in1003.7 mb 0.00 in0.0 mm 0.00 in/hr0.0 mm/hr 0.00 in0.0 mm
03:15 PM 79.7°F26.5°C 66.9°F19.4°C 65% 7.1 mph SE11.4 kmh SE 9.8 mph15.8 kmh 29.64 in1003.7 mb 0.00 in0.0 mm 0.00 in/hr0.0 mm/hr 0.00 in0.0 mm
03:10 PM 78.4°F25.8°C 66.6°F19.2°C 67% 5.9 mph SE9.5 kmh SE 6.9 mph11.1 kmh 29.64 in1003.7 mb 0.00 in0.0 mm 0.00 in/hr0.0 mm/hr 0.00 in0.0 mm
03:05 PM 77.7°F25.4°C 66.8°F19.3°C 69% 6.8 mph SE10.9 kmh SE 11.4 mph18.3 kmh 29.64 in1003.7 mb 0.00 in0.0 mm 0.00 in/hr0.0 mm/hr 0.00 in0.0 mm
03:00 PM 77.7°F25.4°C 66.8°F19.3°C 69% 8.6 mph SE13.8 kmh SE 11.4 mph18.3 kmh 29.64 in1003.7 mb 0.00 in0.0 mm 0.00 in/hr0.0 mm/hr 0.00 in0.0 mm
02:55 PM 78.3°F25.7°C 66.9°F19.4°C 68% 8.2 mph SSE13.2 kmh SSE 11.4 mph18.3 kmh 29.64 in1003.7 mb 0.00 in0.0 mm 0.00 in/hr0.0 mm/hr 0.00 in0.0 mm
02:50 PM 79.9°F26.6°C 67.6°F19.8°C 66% 6.6 mph SE10.6 kmh SE 10.7 mph17.2 kmh 29.65 in1004.1 mb 0.00 in0.0 mm 0.00 in/hr0.0 mm/hr 0.00 in0.0 mm
02:45 PM 81.0°F27.2°C 67.7°F19.8°C 64% 6.6 mph ESE10.6 kmh ESE 9.8 mph15.8 kmh 29.65 in1004.1 mb 0.00 in0.0 mm 0.00 in/hr0.0 mm/hr 0.00 in0.0 mm
02:40 PM 80.8°F27.1°C 67.5°F19.7°C 64% 7.3 mph E11.7 kmh E 10.7 mph17.2 kmh 29.65 in1004.1 mb 0.00 in0.0 mm 0.00 in/hr0.0 mm/hr 0.00 in0.0 mm
02:35 PM 80.4°F26.9°C 67.6°F19.8°C 65% 7.3 mph E11.7 kmh E 10.7 mph17.2 kmh 29.64 in1003.7 mb 0.00 in0.0 mm 0.00 in/hr0.0 mm/hr 0.00 in0.0 mm
02:30 PM 80.2°F26.8°C 67.0°F19.4°C 64% 6.9 mph ESE11.1 kmh ESE 9.8 mph15.8 kmh 29.65 in1004.1 mb 0.00 in0.0 mm 0.00 in/hr0.0 mm/hr 0.00 in0.0 mm
02:25 PM 80.6°F27.0°C 67.3°F19.6°C 64% 6.4 mph E10.3 kmh E 9.8 mph15.8 kmh 29.65 in1004.1 mb 0.00 in0.0 mm 0.00 in/hr0.0 mm/hr 0.00 in0.0 mm
02:20 PM 80.2°F26.8°C 67.5°F19.7°C 65% 6.5 mph E10.5 kmh E 9.2 mph14.8 kmh 29.65 in1004.1 mb 0.00 in0.0 mm 0.00 in/hr0.0 mm/hr 0.00 in0.0 mm
02:15 PM 79.3°F26.3°C 67.5°F19.7°C 67% 8.3 mph SE13.4 kmh SE 11.4 mph18.3 kmh 29.65 in1004.1 mb 0.00 in0.0 mm 0.00 in/hr0.0 mm/hr 0.00 in0.0 mm
02:10 PM 79.0°F26.1°C 67.6°F19.8°C 68% 10.6 mph SE17.1 kmh SE 11.4 mph18.3 kmh 29.66 in1004.4 mb 0.00 in0.0 mm 0.00 in/hr0.0 mm/hr 0.00 in0.0 mm
02:05 PM 80.2°F26.8°C 67.9°F19.9°C 66% 10.3 mph SE16.6 kmh SE 13.0 mph20.9 kmh 29.66 in1004.4 mb 0.00 in0.0 mm 0.00 in/hr0.0 mm/hr 0.00 in0.0 mm
02:00 PM 80.2°F26.8°C 67.9°F19.9°C 66% 7.6 mph SSE12.2 kmh SSE 13.0 mph20.9 kmh 29.66 in1004.4 mb 0.00 in0.0 mm 0.00 in/hr0.0 mm/hr 0.00 in0.0 mm
01:55 PM 80.4°F26.9°C 68.1°F20.1°C 66% 5.2 mph SE8.4 kmh SE 6.9 mph11.1 kmh 29.66 in1004.4 mb 0.00 in0.0 mm 0.00 in/hr0.0 mm/hr 0.00 in0.0 mm
01:50 PM 79.0°F26.1°C 67.6°F19.8°C 68% 5.9 mph E9.5 kmh E 9.2 mph14.8 kmh 29.66 in1004.4 mb 0.00 in0.0 mm 0.00 in/hr0.0 mm/hr 0.00 in0.0 mm
01:45 PM 78.8°F26.0°C 67.0°F19.4°C 67% 7.0 mph E11.3 kmh E 9.2 mph14.8 kmh 29.67 in1004.7 mb 0.00 in0.0 mm 0.00 in/hr0.0 mm/hr 0.00 in0.0 mm
01:40 PM 79.3°F26.3°C 67.0°F19.4°C 66% 6.8 mph SE10.9 kmh SE 8.3 mph13.4 kmh 29.67 in1004.7 mb 0.00 in0.0 mm 0.00 in/hr0.0 mm/hr 0.00 in0.0 mm
01:35 PM 80.1°F26.7°C 67.3°F19.6°C 65% 5.8 mph SE9.3 kmh SE 8.3 mph13.4 kmh 29.67 in1004.7 mb 0.00 in0.0 mm 0.00 in/hr0.0 mm/hr 0.00 in0.0 mm
01:30 PM 80.2°F26.8°C 67.0°F19.4°C 64% 5.9 mph SE9.5 kmh SE 8.3 mph13.4 kmh 29.67 in1004.7 mb 0.00 in0.0 mm 0.00 in/hr0.0 mm/hr 0.00 in0.0 mm
01:25 PM 79.7°F26.5°C 67.4°F19.7°C 66% 7.1 mph ESE11.4 kmh ESE 8.3 mph13.4 kmh 29.67 in1004.7 mb 0.00 in0.0 mm 0.00 in/hr0.0 mm/hr 0.00 in0.0 mm
01:20 PM 81.3°F27.4°C 67.1°F19.5°C 62% 6.6 mph E10.6 kmh E 9.2 mph14.8 kmh 29.67 in1004.7 mb 0.00 in0.0 mm 0.00 in/hr0.0 mm/hr 0.00 in0.0 mm
01:15 PM 82.4°F28.0°C 66.7°F19.3°C 59% 5.9 mph ESE9.5 kmh ESE 9.2 mph14.8 kmh 29.67 in1004.7 mb 0.00 in0.0 mm 0.00 in/hr0.0 mm/hr 0.00 in0.0 mm
01:10 PM 81.9°F27.7°C 67.6°F19.8°C 62% 5.6 mph E9.0 kmh E 8.3 mph13.4 kmh 29.67 in1004.7 mb 0.00 in0.0 mm 0.00 in/hr0.0 mm/hr 0.00 in0.0 mm
01:05 PM 81.1°F27.3°C 67.4°F19.7°C 63% 6.4 mph E10.3 kmh E 8.3 mph13.4 kmh 29.68 in1005.1 mb 0.00 in0.0 mm 0.00 in/hr0.0 mm/hr 0.00 in0.0 mm
01:00 PM 81.1°F27.3°C 67.4°F19.7°C 63% 7.6 mph E12.2 kmh E 9.8 mph15.8 kmh 29.67 in1004.7 mb 0.00 in0.0 mm 0.00 in/hr0.0 mm/hr 0.00 in0.0 mm
12:55 PM 82.4°F28.0°C 66.7°F19.3°C 59% 7.4 mph E11.9 kmh E 10.7 mph17.2 kmh 29.68 in1005.1 mb 0.00 in0.0 mm 0.00 in/hr0.0 mm/hr 0.00 in0.0 mm
12:50 PM 84.2°F29.0°C 67.4°F19.7°C 57% 5.9 mph ENE9.5 kmh ENE 10.7 mph17.2 kmh 29.68 in1005.1 mb 0.00 in0.0 mm 0.00 in/hr0.0 mm/hr 0.00 in0.0 mm
12:45 PM 84.4°F29.1°C 67.5°F19.7°C 57% 5.5 mph E8.9 kmh E 11.4 mph18.3 kmh 29.68 in1005.1 mb 0.00 in0.0 mm 0.00 in/hr0.0 mm/hr 0.00 in0.0 mm
12:40 PM 84.4°F29.1°C 68.0°F20.0°C 58% 5.6 mph ESE9.0 kmh ESE 11.4 mph18.3 kmh 29.68 in1005.1 mb 0.00 in0.0 mm 0.00 in/hr0.0 mm/hr 0.00 in0.0 mm
12:35 PM 84.0°F28.9°C 67.7°F19.8°C 58% 5.4 mph ESE8.7 kmh ESE 11.4 mph18.3 kmh 29.68 in1005.1 mb 0.00 in0.0 mm 0.00 in/hr0.0 mm/hr 0.00 in0.0 mm
12:30 PM 83.1°F28.4°C 67.8°F19.9°C 60% 5.2 mph E8.4 kmh E 9.8 mph15.8 kmh 29.68 in1005.1 mb 0.00 in0.0 mm 0.00 in/hr0.0 mm/hr 0.00 in0.0 mm
12:25 PM 82.6°F28.1°C 66.9°F19.4°C 59% 4.3 mph SE6.9 kmh SE 6.9 mph11.1 kmh 29.68 in1005.1 mb 0.00 in0.0 mm 0.00 in/hr0.0 mm/hr 0.00 in0.0 mm
12:20 PM 81.7°F27.6°C 68.4°F20.2°C 64% 4.5 mph SE7.2 kmh SE 7.6 mph12.2 kmh 29.69 in1005.4 mb 0.00 in0.0 mm 0.00 in/hr0.0 mm/hr 0.00 in0.0 mm
12:15 PM 80.2°F26.8°C 67.5°F19.7°C 65% 6.5 mph SE10.5 kmh SE 10.7 mph17.2 kmh 29.69 in1005.4 mb 0.00 in0.0 mm 0.00 in/hr0.0 mm/hr 0.00 in0.0 mm
12:10 PM 80.2°F26.8°C 67.5°F19.7°C 65% 7.9 mph ESE12.7 kmh ESE 10.7 mph17.2 kmh 29.69 in1005.4 mb 0.00 in0.0 mm 0.00 in/hr0.0 mm/hr 0.00 in0.0 mm
12:05 PM 83.1°F28.4°C 67.8°F19.9°C 60% 7.3 mph ESE11.7 kmh ESE 8.3 mph13.4 kmh 29.69 in1005.4 mb 0.00 in0.0 mm 0.00 in/hr0.0 mm/hr 0.00 in0.0 mm
12:00 PM 83.1°F28.4°C 67.8°F19.9°C 60% 6.7 mph ESE10.8 kmh ESE 8.3 mph13.4 kmh 29.69 in1005.4 mb 0.00 in0.0 mm 0.00 in/hr0.0 mm/hr 0.00 in0.0 mm
11:55 AM 84.4°F29.1°C 67.5°F19.7°C 57% 5.7 mph ENE9.2 kmh ENE 8.3 mph13.4 kmh 29.69 in1005.4 mb 0.00 in0.0 mm 0.00 in/hr0.0 mm/hr 0.00 in0.0 mm
11:50 AM 84.7°F29.3°C 67.9°F19.9°C 57% 4.8 mph E7.7 kmh E 6.9 mph11.1 kmh 29.70 in1005.8 mb 0.00 in0.0 mm 0.00 in/hr0.0 mm/hr 0.00 in0.0 mm
11:45 AM 83.5°F28.6°C 68.2°F20.1°C 60% 5.0 mph SE8.0 kmh SE 6.9 mph11.1 kmh 29.69 in1005.4 mb 0.00 in0.0 mm 0.00 in/hr0.0 mm/hr 0.00 in0.0 mm
11:40 AM 82.6°F28.1°C 68.3°F20.2°C 62% 5.7 mph SE9.2 kmh SE 6.9 mph11.1 kmh 29.70 in1005.8 mb 0.00 in0.0 mm 0.00 in/hr0.0 mm/hr 0.00 in0.0 mm
11:35 AM 85.1°F29.5°C 67.2°F19.6°C 55% 4.2 mph SE6.8 kmh SE 6.0 mph9.7 kmh 29.69 in1005.4 mb 0.00 in0.0 mm 0.00 in/hr0.0 mm/hr 0.00 in0.0 mm
11:30 AM 85.1°F29.5°C 67.2°F19.6°C 55% 2.9 mph SE4.7 kmh SE 6.0 mph9.7 kmh 29.70 in1005.8 mb 0.00 in0.0 mm 0.00 in/hr0.0 mm/hr 0.00 in0.0 mm
11:25 AM 85.6°F29.8°C 67.7°F19.8°C 55% 4.2 mph SSE6.8 kmh SSE 7.6 mph12.2 kmh 29.70 in1005.8 mb 0.00 in0.0 mm 0.00 in/hr0.0 mm/hr 0.00 in0.0 mm
11:20 AM 85.5°F29.7°C 67.0°F19.4°C 54% 3.5 mph S5.6 kmh S 7.6 mph12.2 kmh 29.70 in1005.8 mb 0.00 in0.0 mm 0.00 in/hr0.0 mm/hr 0.00 in0.0 mm
11:15 AM 86.7°F30.4°C 68.1°F20.1°C 54% 2.5 mph NNE4.0 kmh NNE 4.5 mph7.2 kmh 29.70 in1005.8 mb 0.00 in0.0 mm 0.00 in/hr0.0 mm/hr 0.00 in0.0 mm
11:10 AM 85.6°F29.8°C 67.1°F19.5°C 54% 2.6 mph NNE4.2 kmh NNE 4.5 mph7.2 kmh 29.70 in1005.8 mb 0.00 in0.0 mm 0.00 in/hr0.0 mm/hr 0.00 in0.0 mm
11:05 AM 85.3°F29.6°C 66.8°F19.3°C 54% 2.2 mph ENE3.5 kmh ENE 3.8 mph6.1 kmh 29.70 in1005.8 mb 0.00 in0.0 mm 0.00 in/hr0.0 mm/hr 0.00 in0.0 mm
11:00 AM 83.8°F28.8°C 67.5°F19.7°C 58% 1.4 mph SE2.3 kmh SE 3.1 mph5.0 kmh 29.70 in1005.8 mb 0.00 in0.0 mm 0.00 in/hr0.0 mm/hr 0.00 in0.0 mm
10:55 AM 82.4°F28.0°C 67.2°F19.6°C 60% 2.5 mph SSE4.0 kmh SSE 6.0 mph9.7 kmh 29.69 in1005.4 mb 0.00 in0.0 mm 0.00 in/hr0.0 mm/hr 0.00 in0.0 mm
10:50 AM 81.0°F27.2°C 66.3°F19.1°C 61% 4.5 mph SE7.2 kmh SE 6.0 mph9.7 kmh 29.69 in1005.4 mb 0.00 in0.0 mm 0.00 in/hr0.0 mm/hr 0.00 in0.0 mm
10:45 AM 82.8°F28.2°C 67.0°F19.4°C 59% 3.7 mph ESE6.0 kmh ESE 6.0 mph9.7 kmh 29.70 in1005.8 mb 0.00 in0.0 mm 0.00 in/hr0.0 mm/hr 0.00 in0.0 mm
10:40 AM 83.8°F28.8°C 67.0°F19.4°C 57% 2.5 mph ENE4.0 kmh ENE 3.1 mph5.0 kmh 29.69 in1005.4 mb 0.00 in0.0 mm 0.00 in/hr0.0 mm/hr 0.00 in0.0 mm
10:35 AM 84.4°F29.1°C 67.5°F19.7°C 57% 2.2 mph SE3.5 kmh SE 3.1 mph5.0 kmh 29.69 in1005.4 mb 0.00 in0.0 mm 0.00 in/hr0.0 mm/hr 0.00 in0.0 mm
10:30 AM 84.4°F29.1°C 67.5°F19.7°C 57% 2.4 mph S3.9 kmh S 3.1 mph5.0 kmh 29.69 in1005.4 mb 0.00 in0.0 mm 0.00 in/hr0.0 mm/hr 0.00 in0.0 mm
10:25 AM 84.4°F29.1°C 67.0°F19.4°C 56% 2.8 mph SSE4.5 kmh SSE 4.5 mph7.2 kmh 29.69 in1005.4 mb 0.00 in0.0 mm 0.00 in/hr0.0 mm/hr 0.00 in0.0 mm
10:20 AM 84.4°F29.1°C 67.5°F19.7°C 57% 2.9 mph S4.7 kmh S 4.5 mph7.2 kmh 29.69 in1005.4 mb 0.00 in0.0 mm 0.00 in/hr0.0 mm/hr 0.00 in0.0 mm
10:15 AM 83.8°F28.8°C 67.0°F19.4°C 57% 2.8 mph S4.5 kmh S 4.5 mph7.2 kmh 29.69 in1005.4 mb 0.00 in0.0 mm 0.00 in/hr0.0 mm/hr 0.00 in0.0 mm
10:10 AM 84.2°F29.0°C 67.4°F19.7°C 57% 2.6 mph SW4.2 kmh SW 4.5 mph7.2 kmh 29.69 in1005.4 mb 0.00 in0.0 mm 0.00 in/hr0.0 mm/hr 0.00 in0.0 mm
10:05 AM 82.9°F28.3°C 67.7°F19.8°C 60% 2.3 mph NW3.7 kmh NW 3.8 mph6.1 kmh 29.68 in1005.1 mb 0.00 in0.0 mm 0.00 in/hr0.0 mm/hr 0.00 in0.0 mm
10:00 AM 82.4°F28.0°C 66.7°F19.3°C 59% 2.5 mph NNW4.0 kmh NNW 3.1 mph5.0 kmh 29.69 in1005.4 mb 0.00 in0.0 mm 0.00 in/hr0.0 mm/hr 0.00 in0.0 mm
09:55 AM 81.1°F27.3°C 66.9°F19.4°C 62% 3.0 mph NW4.8 kmh NW 3.8 mph6.1 kmh 29.68 in1005.1 mb 0.00 in0.0 mm 0.00 in/hr0.0 mm/hr 0.00 in0.0 mm
09:50 AM 80.1°F26.7°C 67.3°F19.6°C 65% 3.6 mph WSW5.8 kmh WSW 4.5 mph7.2 kmh 29.68 in1005.1 mb 0.00 in0.0 mm 0.00 in/hr0.0 mm/hr 0.00 in0.0 mm
09:45 AM 79.3°F26.3°C 66.6°F19.2°C 65% 3.0 mph WSW4.8 kmh WSW 4.5 mph7.2 kmh 29.68 in1005.1 mb 0.00 in0.0 mm 0.00 in/hr0.0 mm/hr 0.00 in0.0 mm
09:40 AM 79.7°F26.5°C 67.4°F19.7°C 66% 2.7 mph SW4.3 kmh SW 4.5 mph7.2 kmh 29.68 in1005.1 mb 0.00 in0.0 mm 0.00 in/hr0.0 mm/hr 0.00 in0.0 mm
09:35 AM 78.1°F25.6°C 67.1°F19.5°C 69% 3.7 mph WSW6.0 kmh WSW 5.4 mph8.7 kmh 29.68 in1005.1 mb 0.00 in0.0 mm 0.00 in/hr0.0 mm/hr 0.00 in0.0 mm
09:30 AM 78.3°F25.7°C 66.4°F19.1°C 67% 3.6 mph WSW5.8 kmh WSW 5.4 mph8.7 kmh 29.68 in1005.1 mb 0.00 in0.0 mm 0.00 in/hr0.0 mm/hr 0.00 in0.0 mm
09:25 AM 78.3°F25.7°C 67.7°F19.8°C 70% 3.2 mph W5.1 kmh W 4.5 mph7.2 kmh 29.68 in1005.1 mb 0.00 in0.0 mm 0.00 in/hr0.0 mm/hr 0.00 in0.0 mm
09:20 AM 77.9°F25.5°C 67.4°F19.7°C 70% 3.1 mph NNE5.0 kmh NNE 4.5 mph7.2 kmh 29.67 in1004.7 mb 0.00 in0.0 mm 0.00 in/hr0.0 mm/hr 0.00 in0.0 mm
09:15 AM 76.8°F24.9°C 67.2°F19.6°C 72% 3.1 mph NW5.0 kmh NW 5.4 mph8.7 kmh 29.67 in1004.7 mb 0.00 in0.0 mm 0.00 in/hr0.0 mm/hr 0.00 in0.0 mm
09:10 AM 75.2°F24.0°C 66.8°F19.3°C 75% 4.0 mph W6.4 kmh W 5.4 mph8.7 kmh 29.67 in1004.7 mb 0.00 in0.0 mm 0.00 in/hr0.0 mm/hr 0.00 in0.0 mm
09:05 AM 75.4°F24.1°C 66.9°F19.4°C 75% 4.2 mph W6.8 kmh W 5.4 mph8.7 kmh 29.67 in1004.7 mb 0.00 in0.0 mm 0.00 in/hr0.0 mm/hr 0.00 in0.0 mm
09:00 AM 75.2°F24.0°C 66.8°F19.3°C 75% 3.1 mph W5.0 kmh W 4.5 mph7.2 kmh 29.67 in1004.7 mb 0.00 in0.0 mm 0.00 in/hr0.0 mm/hr 0.00 in0.0 mm
08:55 AM 75.4°F24.1°C 67.3°F19.6°C 76% 2.8 mph NW4.5 kmh NW 4.5 mph7.2 kmh 29.68 in1005.1 mb 0.00 in0.0 mm 0.00 in/hr0.0 mm/hr 0.00 in0.0 mm
08:50 AM 74.3°F23.5°C 66.7°F19.3°C 77% 3.1 mph NW5.0 kmh NW 4.5 mph7.2 kmh 29.67 in1004.7 mb 0.00 in0.0 mm 0.00 in/hr0.0 mm/hr 0.00 in0.0 mm
08:45 AM 73.9°F23.3°C 66.7°F19.3°C 78% 2.4 mph NW3.9 kmh NW 4.5 mph7.2 kmh 29.67 in1004.7 mb 0.00 in0.0 mm 0.00 in/hr0.0 mm/hr 0.00 in0.0 mm
08:40 AM 73.6°F23.1°C 67.1°F19.5°C 80% 2.4 mph NW3.9 kmh NW 4.5 mph7.2 kmh 29.67 in1004.7 mb 0.00 in0.0 mm 0.00 in/hr0.0 mm/hr 0.00 in0.0 mm
08:35 AM 72.3°F22.4°C 66.9°F19.4°C 83% 3.0 mph W4.8 kmh W 4.5 mph7.2 kmh 29.67 in1004.7 mb 0.00 in0.0 mm 0.00 in/hr0.0 mm/hr 0.00 in0.0 mm
08:30 AM 71.6°F22.0°C 66.5°F19.2°C 84% 2.9 mph W4.7 kmh W 4.5 mph7.2 kmh 29.67 in1004.7 mb 0.00 in0.0 mm 0.00 in/hr0.0 mm/hr 0.00 in0.0 mm
08:25 AM 70.3°F21.3°C 66.3°F19.1°C 87% 2.3 mph WNW3.7 kmh WNW 3.8 mph6.1 kmh 29.67 in1004.7 mb 0.00 in0.0 mm 0.00 in/hr0.0 mm/hr 0.00 in0.0 mm
08:20 AM 69.4°F20.8°C 66.1°F18.9°C 89% 2.1 mph WNW3.4 kmh WNW 3.1 mph5.0 kmh 29.67 in1004.7 mb 0.00 in0.0 mm 0.00 in/hr0.0 mm/hr 0.00 in0.0 mm
08:15 AM 68.2°F20.1°C 65.8°F18.8°C 92% 1.8 mph WSW2.9 kmh WSW 3.1 mph5.0 kmh 29.66 in1004.4 mb 0.00 in0.0 mm 0.00 in/hr0.0 mm/hr 0.00 in0.0 mm
08:10 AM 66.6°F19.2°C 64.5°F18.1°C 93% 2.0 mph S3.2 kmh S 2.2 mph3.5 kmh 29.66 in1004.4 mb 0.00 in0.0 mm 0.00 in/hr0.0 mm/hr 0.00 in0.0 mm
08:05 AM 66.2°F19.0°C 64.1°F17.8°C 93% 2.0 mph SSW3.2 kmh SSW 3.1 mph5.0 kmh 29.66 in1004.4 mb 0.00 in0.0 mm 0.00 in/hr0.0 mm/hr 0.00 in0.0 mm
08:00 AM 66.2°F19.0°C 64.1°F17.8°C 93% 1.7 mph WSW2.7 kmh WSW 3.1 mph5.0 kmh 29.66 in1004.4 mb 0.00 in0.0 mm 0.00 in/hr0.0 mm/hr 0.00 in0.0 mm
07:55 AM 66.2°F19.0°C 64.1°F17.8°C 93% 1.9 mph WSW3.1 kmh WSW 3.1 mph5.0 kmh 29.66 in1004.4 mb 0.00 in0.0 mm 0.00 in/hr0.0 mm/hr 0.00 in0.0 mm
07:50 AM 66.6°F19.2°C 64.5°F18.1°C 93% 2.0 mph SW3.2 kmh SW 3.1 mph5.0 kmh 29.65 in1004.1 mb 0.00 in0.0 mm 0.00 in/hr0.0 mm/hr 0.00 in0.0 mm
07:45 AM 67.1°F19.5°C 65.3°F18.5°C 94% 1.6 mph SSW2.6 kmh SSW 3.1 mph5.0 kmh 29.65 in1004.1 mb 0.00 in0.0 mm 0.00 in/hr0.0 mm/hr 0.00 in0.0 mm
07:40 AM 66.7°F19.3°C 65.3°F18.5°C 95% 1.3 mph WSW2.1 kmh WSW 2.2 mph3.5 kmh 29.65 in1004.1 mb 0.00 in0.0 mm 0.00 in/hr0.0 mm/hr 0.00 in0.0 mm
07:35 AM 65.8°F18.8°C 64.7°F18.2°C 96% 1.1 mph W1.8 kmh W 1.6 mph2.6 kmh 29.65 in1004.1 mb 0.00 in0.0 mm 0.00 in/hr0.0 mm/hr 0.00 in0.0 mm
07:30 AM 65.3°F18.5°C 64.2°F17.9°C 96% 0.7 mph W1.1 kmh W 1.6 mph2.6 kmh 29.65 in1004.1 mb 0.00 in0.0 mm 0.00 in/hr0.0 mm/hr 0.00 in0.0 mm
07:25 AM 64.4°F18.0°C 63.3°F17.4°C 96% 0.5 mph WSW0.8 kmh WSW 1.6 mph2.6 kmh 29.65 in1004.1 mb 0.00 in0.0 mm 0.00 in/hr0.0 mm/hr 0.00 in0.0 mm
07:20 AM 63.9°F17.7°C 62.7°F17.1°C 96% 0.5 mph SW0.8 kmh SW 1.6 mph2.6 kmh 29.64 in1003.7 mb 0.00 in0.0 mm 0.00 in/hr0.0 mm/hr 0.00 in0.0 mm
07:15 AM 64.0°F17.8°C 62.9°F17.2°C 96% 0.3 mph SW0.5 kmh SW 1.6 mph2.6 kmh 29.65 in1004.1 mb 0.00 in0.0 mm 0.00 in/hr0.0 mm/hr 0.00 in0.0 mm
07:10 AM 63.9°F17.7°C 62.7°F17.1°C 96% Calm Calm -- 29.64 in1003.7 mb 0.00 in0.0 mm 0.00 in/hr0.0 mm/hr 0.00 in0.0 mm
07:05 AM 63.5°F17.5°C 62.4°F16.9°C 96% Calm Calm -- 29.65 in1004.1 mb 0.00 in0.0 mm 0.00 in/hr0.0 mm/hr 0.00 in0.0 mm
07:00 AM 63.5°F17.5°C 62.4°F16.9°C 96% Calm Calm -- 29.64 in1003.7 mb 0.00 in0.0 mm 0.00 in/hr0.0 mm/hr 0.00 in0.0 mm
06:55 AM 63.5°F17.5°C 62.4°F16.9°C 96% 0.6 mph S1.0 kmh S 2.2 mph3.5 kmh 29.64 in1003.7 mb 0.00 in0.0 mm 0.00 in/hr0.0 mm/hr 0.00 in0.0 mm
06:50 AM 63.1°F17.3°C 62.0°F16.7°C 96% 1.2 mph S1.9 kmh S 2.2 mph3.5 kmh 29.64 in1003.7 mb 0.00 in0.0 mm 0.00 in/hr0.0 mm/hr 0.00 in0.0 mm
06:45 AM 63.3°F17.4°C 62.2°F16.8°C 96% 1.5 mph SSE2.4 kmh SSE 2.2 mph3.5 kmh 29.64 in1003.7 mb 0.00 in0.0 mm 0.00 in/hr0.0 mm/hr 0.00 in0.0 mm
06:40 AM 63.1°F17.3°C 62.0°F16.7°C 96% 1.3 mph SE2.1 kmh SE 2.2 mph3.5 kmh 29.63 in1003.4 mb 0.00 in0.0 mm 0.00 in/hr0.0 mm/hr 0.00 in0.0 mm
06:35 AM 62.8°F17.1°C 61.3°F16.3°C 95% 1.0 mph S1.6 kmh S 2.2 mph3.5 kmh 29.63 in1003.4 mb 0.00 in0.0 mm 0.00 in/hr0.0 mm/hr 0.00 in0.0 mm
06:30 AM 62.8°F17.1°C 61.3°F16.3°C 95% 1.1 mph SSW1.8 kmh SSW 2.2 mph3.5 kmh 29.62 in1003.0 mb 0.00 in0.0 mm 0.00 in/hr0.0 mm/hr 0.00 in0.0 mm
06:25 AM 62.6°F17.0°C 61.2°F16.2°C 95% 1.0 mph S1.6 kmh S 2.2 mph3.5 kmh 29.62 in1003.0 mb 0.00 in0.0 mm 0.00 in/hr0.0 mm/hr 0.00 in0.0 mm
06:20 AM 62.2°F16.8°C 60.8°F16.0°C 95% 0.7 mph S1.1 kmh S 2.2 mph3.5 kmh 29.62 in1003.0 mb 0.00 in0.0 mm 0.00 in/hr0.0 mm/hr 0.00 in0.0 mm
06:15 AM 62.2°F16.8°C 60.8°F16.0°C 95% 0.7 mph S1.1 kmh S 1.6 mph2.6 kmh 29.62 in1003.0 mb 0.00 in0.0 mm 0.00 in/hr0.0 mm/hr 0.00 in0.0 mm
06:10 AM 62.1°F16.7°C 60.6°F15.9°C 95% 1.3 mph S2.1 kmh S 1.6 mph2.6 kmh 29.62 in1003.0 mb 0.00 in0.0 mm 0.00 in/hr0.0 mm/hr 0.00 in0.0 mm
06:05 AM 62.1°F16.7°C 60.6°F15.9°C 95% 1.2 mph S1.9 kmh S 1.6 mph2.6 kmh 29.62 in1003.0 mb 0.00 in0.0 mm 0.00 in/hr0.0 mm/hr 0.00 in0.0 mm
06:00 AM 62.1°F16.7°C 60.6°F15.9°C 95% 0.9 mph WNW1.4 kmh WNW 1.6 mph2.6 kmh 29.62 in1003.0 mb 0.00 in0.0 mm 0.00 in/hr0.0 mm/hr 0.00 in0.0 mm
05:55 AM 62.1°F16.7°C 60.6°F15.9°C 95% 0.5 mph NW0.8 kmh NW 1.6 mph2.6 kmh 29.61 in1002.7 mb 0.00 in0.0 mm 0.00 in/hr0.0 mm/hr 0.00 in0.0 mm
05:50 AM 62.1°F16.7°C 60.6°F15.9°C 95% 0.2 mph S0.3 kmh S 0.7 mph1.1 kmh 29.61 in1002.7 mb 0.00 in0.0 mm 0.00 in/hr0.0 mm/hr 0.00 in0.0 mm
05:45 AM 62.1°F16.7°C 60.6°F15.9°C 95% 0.6 mph S1.0 kmh S 1.6 mph2.6 kmh 29.61 in1002.7 mb 0.00 in0.0 mm 0.00 in/hr0.0 mm/hr 0.00 in0.0 mm
05:40 AM 61.7°F16.5°C 60.3°F15.7°C 95% 0.6 mph S1.0 kmh S 1.6 mph2.6 kmh 29.61 in1002.7 mb 0.00 in0.0 mm 0.00 in/hr0.0 mm/hr 0.00 in0.0 mm
05:35 AM 61.7°F16.5°C 60.3°F15.7°C 95% 0.2 mph S0.3 kmh S 1.6 mph2.6 kmh 29.61 in1002.7 mb 0.00 in0.0 mm 0.00 in/hr0.0 mm/hr 0.00 in0.0 mm
05:30 AM 61.9°F16.6°C 60.2°F15.7°C 94% Calm Calm -- 29.61 in1002.7 mb 0.00 in0.0 mm 0.00 in/hr0.0 mm/hr 0.00 in0.0 mm
05:25 AM 61.9°F16.6°C 60.2°F15.7°C 94% Calm Calm -- 29.60 in1002.4 mb 0.00 in0.0 mm 0.00 in/hr0.0 mm/hr 0.00 in0.0 mm
05:20 AM 62.1°F16.7°C 60.3°F15.7°C 94% Calm Calm -- 29.60 in1002.4 mb 0.00 in0.0 mm 0.00 in/hr0.0 mm/hr 0.00 in0.0 mm
05:15 AM 62.2°F16.8°C 60.5°F15.8°C 94% Calm Calm -- 29.60 in1002.4 mb 0.00 in0.0 mm 0.00 in/hr0.0 mm/hr 0.00 in0.0 mm
05:10 AM 62.1°F16.7°C 60.3°F15.7°C 94% Calm Calm -- 29.60 in1002.4 mb 0.00 in0.0 mm 0.00 in/hr0.0 mm/hr 0.00 in0.0 mm
05:05 AM 62.2°F16.8°C 60.5°F15.8°C 94% Calm Calm -- 29.60 in1002.4 mb 0.00 in0.0 mm 0.00 in/hr0.0 mm/hr 0.00 in0.0 mm
05:00 AM 62.2°F16.8°C 60.5°F15.8°C 94% Calm Calm -- 29.60 in1002.4 mb 0.00 in0.0 mm 0.00 in/hr0.0 mm/hr 0.00 in0.0 mm
04:55 AM 62.2°F16.8°C 60.5°F15.8°C 94% 0.4 mph SSW0.6 kmh SSW 1.6 mph2.6 kmh 29.61 in1002.7 mb 0.00 in0.0 mm 0.00 in/hr0.0 mm/hr 0.00 in0.0 mm
04:50 AM 62.4°F16.9°C 60.7°F15.9°C 94% 0.9 mph S1.4 kmh S 1.6 mph2.6 kmh 29.61 in1002.7 mb 0.00 in0.0 mm 0.00 in/hr0.0 mm/hr 0.00 in0.0 mm
04:45 AM 62.2°F16.8°C 60.5°F15.8°C 94% 1.0 mph S1.6 kmh S 1.6 mph2.6 kmh 29.61 in1002.7 mb 0.00 in0.0 mm 0.00 in/hr0.0 mm/hr 0.00 in0.0 mm
04:40 AM 62.4°F16.9°C 60.7°F15.9°C 94% 0.8 mph SSE1.3 kmh SSE 1.6 mph2.6 kmh 29.60 in1002.4 mb 0.00 in0.0 mm 0.00 in/hr0.0 mm/hr 0.00 in0.0 mm
04:35 AM 62.6°F17.0°C 60.9°F16.1°C 94% 0.4 mph SE0.6 kmh SE 1.6 mph2.6 kmh 29.60 in1002.4 mb 0.00 in0.0 mm 0.00 in/hr0.0 mm/hr 0.00 in0.0 mm
04:30 AM 62.6°F17.0°C 60.6°F15.9°C 93% 0.2 mph SE0.3 kmh SE 0.7 mph1.1 kmh 29.60 in1002.4 mb 0.00 in0.0 mm 0.00 in/hr0.0 mm/hr 0.00 in0.0 mm
04:25 AM 62.8°F17.1°C 61.0°F16.1°C 94% 0.3 mph ESE0.5 kmh ESE 0.7 mph1.1 kmh 29.60 in1002.4 mb 0.00 in0.0 mm 0.00 in/hr0.0 mm/hr 0.00 in0.0 mm
04:20 AM 63.0°F17.2°C 61.2°F16.2°C 94% 0.3 mph SE0.5 kmh SE 0.7 mph1.1 kmh 29.60 in1002.4 mb 0.00 in0.0 mm 0.00 in/hr0.0 mm/hr 0.00 in0.0 mm
04:15 AM 63.0°F17.2°C 60.9°F16.1°C 93% 0.3 mph SE0.5 kmh SE 0.7 mph1.1 kmh 29.60 in1002.4 mb 0.00 in0.0 mm 0.00 in/hr0.0 mm/hr 0.00 in0.0 mm
04:10 AM 62.8°F17.1°C 60.7°F15.9°C 93% 0.1 mph SE0.2 kmh SE 0.7 mph1.1 kmh 29.60 in1002.4 mb 0.00 in0.0 mm 0.00 in/hr0.0 mm/hr 0.00 in0.0 mm
04:05 AM 63.0°F17.2°C 60.9°F16.1°C 93% Calm Calm -- 29.60 in1002.4 mb 0.00 in0.0 mm 0.00 in/hr0.0 mm/hr 0.00 in0.0 mm
04:00 AM 63.0°F17.2°C 60.9°F16.1°C 93% 0.4 mph WNW0.6 kmh WNW 1.6 mph2.6 kmh 29.59 in1002.0 mb 0.00 in0.0 mm 0.00 in/hr0.0 mm/hr 0.00 in0.0 mm
03:55 AM 63.0°F17.2°C 60.9°F16.1°C 93% 0.4 mph WNW0.6 kmh WNW 1.6 mph2.6 kmh 29.59 in1002.0 mb 0.00 in0.0 mm 0.00 in/hr0.0 mm/hr 0.00 in0.0 mm
03:50 AM 63.1°F17.3°C 61.1°F16.2°C 93% Calm Calm -- 29.59 in1002.0 mb 0.00 in0.0 mm 0.00 in/hr0.0 mm/hr 0.00 in0.0 mm
03:45 AM 63.5°F17.5°C 61.5°F16.4°C 93% 0.3 mph S0.5 kmh S 1.6 mph2.6 kmh 29.59 in1002.0 mb 0.00 in0.0 mm 0.00 in/hr0.0 mm/hr 0.00 in0.0 mm
03:40 AM 63.3°F17.4°C 61.6°F16.4°C 94% 0.9 mph S1.4 kmh S 1.6 mph2.6 kmh 29.59 in1002.0 mb 0.00 in0.0 mm 0.00 in/hr0.0 mm/hr 0.00 in0.0 mm
03:35 AM 63.3°F17.4°C 61.6°F16.4°C 94% 1.0 mph S1.6 kmh S 1.6 mph2.6 kmh 29.59 in1002.0 mb 0.00 in0.0 mm 0.00 in/hr0.0 mm/hr 0.00 in0.0 mm
03:30 AM 63.3°F17.4°C 61.3°F16.3°C 93% 0.5 mph S0.8 kmh S 1.6 mph2.6 kmh 29.59 in1002.0 mb 0.00 in0.0 mm 0.00 in/hr0.0 mm/hr 0.00 in0.0 mm
03:25 AM 63.7°F17.6°C 61.6°F16.4°C 93% 0.4 mph N0.6 kmh N 0.7 mph1.1 kmh 29.59 in1002.0 mb 0.00 in0.0 mm 0.00 in/hr0.0 mm/hr 0.00 in0.0 mm
03:20 AM 63.7°F17.6°C 61.6°F16.4°C 93% 1.0 mph SSE1.6 kmh SSE 1.6 mph2.6 kmh 29.59 in1002.0 mb 0.00 in0.0 mm 0.00 in/hr0.0 mm/hr 0.00 in0.0 mm
03:15 AM 63.7°F17.6°C 61.6°F16.4°C 93% 1.3 mph S2.1 kmh S 2.2 mph3.5 kmh 29.59 in1002.0 mb 0.00 in0.0 mm 0.00 in/hr0.0 mm/hr 0.00 in0.0 mm
03:10 AM 63.7°F17.6°C 61.6°F16.4°C 93% 1.7 mph S2.7 kmh S 2.2 mph3.5 kmh 29.59 in1002.0 mb 0.00 in0.0 mm 0.00 in/hr0.0 mm/hr 0.00 in0.0 mm
03:05 AM 63.7°F17.6°C 61.3°F16.3°C 92% 1.6 mph S2.6 kmh S 2.2 mph3.5 kmh 29.60 in1002.4 mb 0.00 in0.0 mm 0.00 in/hr0.0 mm/hr 0.00 in0.0 mm
03:00 AM 63.7°F17.6°C 61.3°F16.3°C 92% 0.8 mph S1.3 kmh S 2.2 mph3.5 kmh 29.59 in1002.0 mb 0.00 in0.0 mm 0.00 in/hr0.0 mm/hr 0.00 in0.0 mm
02:55 AM 64.0°F17.8°C 61.4°F16.3°C 91% 0.6 mph SSW1.0 kmh SSW 1.6 mph2.6 kmh 29.59 in1002.0 mb 0.00 in0.0 mm 0.00 in/hr0.0 mm/hr 0.00 in0.0 mm
02:50 AM 64.2°F17.9°C 61.2°F16.2°C 90% 0.6 mph S1.0 kmh S 1.6 mph2.6 kmh 29.59 in1002.0 mb 0.00 in0.0 mm 0.00 in/hr0.0 mm/hr 0.00 in0.0 mm
02:45 AM 64.6°F18.1°C 61.9°F16.6°C 91% 0.4 mph SE0.6 kmh SE 1.6 mph2.6 kmh 29.59 in1002.0 mb 0.00 in0.0 mm 0.00 in/hr0.0 mm/hr 0.00 in0.0 mm
02:40 AM 64.8°F18.2°C 62.1°F16.7°C 91% 0.4 mph WSW0.6 kmh WSW 1.6 mph2.6 kmh 29.59 in1002.0 mb 0.00 in0.0 mm 0.00 in/hr0.0 mm/hr 0.00 in0.0 mm
02:35 AM 64.8°F18.2°C 61.5°F16.4°C 89% 0.8 mph WSW1.3 kmh WSW 1.6 mph2.6 kmh 29.59 in1002.0 mb 0.00 in0.0 mm 0.00 in/hr0.0 mm/hr 0.00 in0.0 mm
02:30 AM 64.9°F18.3°C 62.0°F16.7°C 90% 0.7 mph SW1.1 kmh SW 1.6 mph2.6 kmh 29.59 in1002.0 mb 0.00 in0.0 mm 0.00 in/hr0.0 mm/hr 0.00 in0.0 mm
02:25 AM 65.3°F18.5°C 62.0°F16.7°C 89% 1.0 mph SE1.6 kmh SE 2.2 mph3.5 kmh 29.60 in1002.4 mb 0.00 in0.0 mm 0.00 in/hr0.0 mm/hr 0.00 in0.0 mm
02:20 AM 65.8°F18.8°C 62.8°F17.1°C 90% 1.8 mph SSE2.9 kmh SSE 2.2 mph3.5 kmh 29.60 in1002.4 mb 0.00 in0.0 mm 0.00 in/hr0.0 mm/hr 0.00 in0.0 mm
02:15 AM 65.8°F18.8°C 62.8°F17.1°C 90% 2.1 mph S3.4 kmh S 3.1 mph5.0 kmh 29.60 in1002.4 mb 0.00 in0.0 mm 0.00 in/hr0.0 mm/hr 0.00 in0.0 mm
02:10 AM 66.0°F18.9°C 62.4°F16.9°C 88% 2.7 mph S4.3 kmh S 3.1 mph5.0 kmh 29.60 in1002.4 mb 0.00 in0.0 mm 0.00 in/hr0.0 mm/hr 0.00 in0.0 mm
02:05 AM 66.2°F19.0°C 62.9°F17.2°C 89% 2.8 mph S4.5 kmh S 3.1 mph5.0 kmh 29.60 in1002.4 mb 0.00 in0.0 mm 0.00 in/hr0.0 mm/hr 0.00 in0.0 mm
02:00 AM 66.2°F19.0°C 62.9°F17.2°C 89% 1.6 mph SSE2.6 kmh SSE 3.1 mph5.0 kmh 29.60 in1002.4 mb 0.00 in0.0 mm 0.00 in/hr0.0 mm/hr 0.00 in0.0 mm
01:55 AM 66.2°F19.0°C 62.9°F17.2°C 89% 0.8 mph SE1.3 kmh SE 2.2 mph3.5 kmh 29.60 in1002.4 mb 0.00 in0.0 mm 0.00 in/hr0.0 mm/hr 0.00 in0.0 mm
01:50 AM 66.4°F19.1°C 62.7°F17.1°C 88% 0.8 mph SSE1.3 kmh SSE 2.2 mph3.5 kmh 29.61 in1002.7 mb 0.00 in0.0 mm 0.00 in/hr0.0 mm/hr 0.00 in0.0 mm
01:45 AM 66.4°F19.1°C 62.4°F16.9°C 87% 0.8 mph S1.3 kmh S 2.2 mph3.5 kmh 29.60 in1002.4 mb 0.00 in0.0 mm 0.00 in/hr0.0 mm/hr 0.00 in0.0 mm
01:40 AM 66.4°F19.1°C 62.4°F16.9°C 87% 1.5 mph S2.4 kmh S 2.2 mph3.5 kmh 29.60 in1002.4 mb 0.00 in0.0 mm 0.00 in/hr0.0 mm/hr 0.00 in0.0 mm
01:35 AM 66.6°F19.2°C 62.9°F17.2°C 88% 1.5 mph S2.4 kmh S 2.2 mph3.5 kmh 29.60 in1002.4 mb 0.00 in0.0 mm 0.00 in/hr0.0 mm/hr 0.00 in0.0 mm
01:30 AM 66.6°F19.2°C 62.6°F17.0°C 87% 0.9 mph SE1.4 kmh SE 2.2 mph3.5 kmh 29.60 in1002.4 mb 0.00 in0.0 mm 0.00 in/hr0.0 mm/hr 0.00 in0.0 mm
01:25 AM 66.9°F19.4°C 62.6°F17.0°C 86% 1.0 mph ESE1.6 kmh ESE 2.2 mph3.5 kmh 29.60 in1002.4 mb 0.00 in0.0 mm 0.00 in/hr0.0 mm/hr 0.00 in0.0 mm
01:20 AM 67.1°F19.5°C 62.8°F17.1°C 86% 1.3 mph SE2.1 kmh SE 2.2 mph3.5 kmh 29.61 in1002.7 mb 0.00 in0.0 mm 0.00 in/hr0.0 mm/hr 0.00 in0.0 mm
01:15 AM 67.3°F19.6°C 63.0°F17.2°C 86% 1.3 mph S2.1 kmh S 2.2 mph3.5 kmh 29.60 in1002.4 mb 0.00 in0.0 mm 0.00 in/hr0.0 mm/hr 0.00 in0.0 mm
01:10 AM 67.5°F19.7°C 62.5°F16.9°C 84% 1.5 mph S2.4 kmh S 1.6 mph2.6 kmh 29.60 in1002.4 mb 0.00 in0.0 mm 0.00 in/hr0.0 mm/hr 0.00 in0.0 mm
01:05 AM 67.3°F19.6°C 62.3°F16.8°C 84% 1.9 mph SSW3.1 kmh SSW 4.5 mph7.2 kmh 29.61 in1002.7 mb 0.00 in0.0 mm 0.00 in/hr0.0 mm/hr 0.00 in0.0 mm
01:00 AM 67.3°F19.6°C 62.3°F16.8°C 84% 1.8 mph SSW2.9 kmh SSW 4.5 mph7.2 kmh 29.61 in1002.7 mb 0.00 in0.0 mm 0.00 in/hr0.0 mm/hr 0.00 in0.0 mm
12:55 AM 67.3°F19.6°C 62.6°F17.0°C 85% 1.7 mph SSE2.7 kmh SSE 3.1 mph5.0 kmh 29.61 in1002.7 mb 0.00 in0.0 mm 0.00 in/hr0.0 mm/hr 0.00 in0.0 mm
12:50 AM 67.5°F19.7°C 62.8°F17.1°C 85% 2.1 mph SSE3.4 kmh SSE 3.1 mph5.0 kmh 29.61 in1002.7 mb 0.00 in0.0 mm 0.00 in/hr0.0 mm/hr 0.00 in0.0 mm
12:45 AM 67.3°F19.6°C 62.6°F17.0°C 85% 2.2 mph S3.5 kmh S 3.1 mph5.0 kmh 29.61 in1002.7 mb 0.00 in0.0 mm 0.00 in/hr0.0 mm/hr 0.00 in0.0 mm
12:40 AM 67.5°F19.7°C 62.5°F16.9°C 84% 1.7 mph SSW2.7 kmh SSW 3.1 mph5.0 kmh 29.60 in1002.4 mb 0.00 in0.0 mm 0.00 in/hr0.0 mm/hr 0.00 in0.0 mm
12:35 AM 67.5°F19.7°C 62.1°F16.7°C 83% 1.4 mph SSW2.3 kmh SSW 2.2 mph3.5 kmh 29.60 in1002.4 mb 0.00 in0.0 mm 0.00 in/hr0.0 mm/hr 0.00 in0.0 mm
12:30 AM 67.8°F19.9°C 62.5°F16.9°C 83% 1.5 mph S2.4 kmh S 3.8 mph6.1 kmh 29.61 in1002.7 mb 0.00 in0.0 mm 0.00 in/hr0.0 mm/hr 0.00 in0.0 mm
12:25 AM 68.0°F20.0°C 62.3°F16.8°C 82% 2.3 mph S3.7 kmh S 3.8 mph6.1 kmh 29.60 in1002.4 mb 0.00 in0.0 mm 0.00 in/hr0.0 mm/hr 0.00 in0.0 mm
12:20 AM 68.2°F20.1°C 62.8°F17.1°C 83% 2.4 mph SSE3.9 kmh SSE 3.8 mph6.1 kmh 29.60 in1002.4 mb 0.00 in0.0 mm 0.00 in/hr0.0 mm/hr 0.00 in0.0 mm
12:15 AM 68.2°F20.1°C 62.5°F16.9°C 82% 2.1 mph S3.4 kmh S 3.8 mph6.1 kmh 29.60 in1002.4 mb 0.00 in0.0 mm 0.00 in/hr0.0 mm/hr 0.00 in0.0 mm
12:10 AM 68.4°F20.2°C 63.0°F17.2°C 83% 2.9 mph S4.7 kmh S 3.1 mph5.0 kmh 29.60 in1002.4 mb 0.00 in0.0 mm 0.00 in/hr0.0 mm/hr 0.00 in0.0 mm
12:05 AM 68.4°F20.2°C 62.7°F17.1°C 82% 3.1 mph S5.0 kmh S 3.8 mph6.1 kmh 29.60 in1002.4 mb 0.00 in0.0 mm 0.00 in/hr0.0 mm/hr 0.00 in0.0 mm
12:00 AM 68.4°F20.2°C 62.7°F17.1°C 82% 2.5 mph S4.0 kmh S 3.8 mph6.1 kmh 29.60 in1002.4 mb 0.00 in0.0 mm 0.00 in/hr0.0 mm/hr 0.00 in0.0 mm